sensor_id;sensor_type;location;lat;lon;timestamp;temperature;humidity
19646;DHT22;9971;52.446;13.452;2023-09-08T00:03:27;18.40;99.90
19646;DHT22;9971;52.446;13.452;2023-09-08T00:08:29;18.30;99.90
19646;DHT22;9971;52.446;13.452;2023-09-08T00:13:37;18.20;99.90
19646;DHT22;9971;52.446;13.452;2023-09-08T00:18:42;18.10;99.90
19646;DHT22;9971;52.446;13.452;2023-09-08T00:23:44;18.10;99.90
19646;DHT22;9971;52.446;13.452;2023-09-08T00:28:47;18.00;99.90
19646;DHT22;9971;52.446;13.452;2023-09-08T00:33:50;17.90;99.90
19646;DHT22;9971;52.446;13.452;2023-09-08T00:38:54;17.90;99.90
19646;DHT22;9971;52.446;13.452;2023-09-08T00:43:56;17.80;99.90
19646;DHT22;9971;52.446;13.452;2023-09-08T00:48:59;17.90;99.90
19646;DHT22;9971;52.446;13.452;2023-09-08T00:54:01;17.90;99.90
19646;DHT22;9971;52.446;13.452;2023-09-08T00:59:05;17.90;99.90
19646;DHT22;9971;52.446;13.452;2023-09-08T01:04:08;17.80;99.90
19646;DHT22;9971;52.446;13.452;2023-09-08T01:09:12;17.70;99.90
19646;DHT22;9971;52.446;13.452;2023-09-08T01:14:17;17.70;99.90
19646;DHT22;9971;52.446;13.452;2023-09-08T01:19:24;17.50;99.90
19646;DHT22;9971;52.446;13.452;2023-09-08T01:29:56;17.60;99.90
19646;DHT22;9971;52.446;13.452;2023-09-08T01:35:03;17.40;99.90
19646;DHT22;9971;52.446;13.452;2023-09-08T01:40:06;17.40;99.90
19646;DHT22;9971;52.446;13.452;2023-09-08T01:45:12;17.30;99.90
19646;DHT22;9971;52.446;13.452;2023-09-08T01:50:15;17.30;99.90
19646;DHT22;9971;52.446;13.452;2023-09-08T01:55:18;17.20;99.90
19646;DHT22;9971;52.446;13.452;2023-09-08T02:00:21;17.20;99.90
19646;DHT22;9971;52.446;13.452;2023-09-08T02:05:25;17.10;99.90
19646;DHT22;9971;52.446;13.452;2023-09-08T02:10:28;17.00;99.90
19646;DHT22;9971;52.446;13.452;2023-09-08T02:15:31;17.00;99.90
19646;DHT22;9971;52.446;13.452;2023-09-08T02:20:34;16.90;99.90
19646;DHT22;9971;52.446;13.452;2023-09-08T02:25:37;16.80;99.90
19646;DHT22;9971;52.446;13.452;2023-09-08T02:30:40;16.80;99.90
19646;DHT22;9971;52.446;13.452;2023-09-08T02:35:42;16.70;99.90
19646;DHT22;9971;52.446;13.452;2023-09-08T02:40:44;16.70;99.90
19646;DHT22;9971;52.446;13.452;2023-09-08T02:45:47;16.70;99.90
19646;DHT22;9971;52.446;13.452;2023-09-08T02:50:49;16.70;99.90
19646;DHT22;9971;52.446;13.452;2023-09-08T02:55:52;16.60;99.90
19646;DHT22;9971;52.446;13.452;2023-09-08T03:00:54;16.60;99.90
19646;DHT22;9971;52.446;13.452;2023-09-08T03:05:57;16.60;99.90
19646;DHT22;9971;52.446;13.452;2023-09-08T03:10:59;16.60;99.90
19646;DHT22;9971;52.446;13.452;2023-09-08T03:16:05;16.50;99.90
19646;DHT22;9971;52.446;13.452;2023-09-08T03:21:06;16.50;99.90
19646;DHT22;9971;52.446;13.452;2023-09-08T03:26:12;16.50;99.90
19646;DHT22;9971;52.446;13.452;2023-09-08T03:31:17;16.50;99.90
19646;DHT22;9971;52.446;13.452;2023-09-08T03:36:19;16.40;99.90
19646;DHT22;9971;52.446;13.452;2023-09-08T03:41:22;16.40;99.90
19646;DHT22;9971;52.446;13.452;2023-09-08T03:46:25;16.40;99.90
19646;DHT22;9971;52.446;13.452;2023-09-08T03:51:28;16.40;99.90
19646;DHT22;9971;52.446;13.452;2023-09-08T03:56:31;16.40;99.90
19646;DHT22;9971;52.446;13.452;2023-09-08T04:01:34;16.40;99.90
19646;DHT22;9971;52.446;13.452;2023-09-08T04:06:36;16.20;99.90
19646;DHT22;9971;52.446;13.452;2023-09-08T04:11:41;16.20;99.90
19646;DHT22;9971;52.446;13.452;2023-09-08T04:16:44;16.20;99.90
19646;DHT22;9971;52.446;13.452;2023-09-08T04:21:47;16.10;99.90
19646;DHT22;9971;52.446;13.452;2023-09-08T04:26:49;16.00;99.90
19646;DHT22;9971;52.446;13.452;2023-09-08T04:31:52;16.00;99.90
19646;DHT22;9971;52.446;13.452;2023-09-08T04:36:54;16.00;99.90
19646;DHT22;9971;52.446;13.452;2023-09-08T04:41:57;16.00;99.90
19646;DHT22;9971;52.446;13.452;2023-09-08T04:46:59;16.00;99.90
19646;DHT22;9971;52.446;13.452;2023-09-08T04:52:02;15.90;99.90
19646;DHT22;9971;52.446;13.452;2023-09-08T04:57:05;16.00;99.90
19646;DHT22;9971;52.446;13.452;2023-09-08T05:02:08;15.90;99.90
19646;DHT22;9971;52.446;13.452;2023-09-08T05:07:11;15.90;99.90
19646;DHT22;9971;52.446;13.452;2023-09-08T05:12:13;15.90;99.90
19646;DHT22;9971;52.446;13.452;2023-09-08T05:17:16;16.00;99.90
19646;DHT22;9971;52.446;13.452;2023-09-08T05:22:18;16.10;99.90
19646;DHT22;9971;52.446;13.452;2023-09-08T05:27:21;16.20;99.90
19646;DHT22;9971;52.446;13.452;2023-09-08T05:32:23;16.20;99.90
19646;DHT22;9971;52.446;13.452;2023-09-08T05:37:26;16.30;99.90
19646;DHT22;9971;52.446;13.452;2023-09-08T05:42:28;16.30;99.90
19646;DHT22;9971;52.446;13.452;2023-09-08T05:47:31;16.50;99.90
19646;DHT22;9971;52.446;13.452;2023-09-08T05:52:33;16.70;99.90
19646;DHT22;9971;52.446;13.452;2023-09-08T05:57:36;16.80;99.90
19646;DHT22;9971;52.446;13.452;2023-09-08T06:02:38;17.00;99.90
19646;DHT22;9971;52.446;13.452;2023-09-08T06:07:40;17.20;99.90
19646;DHT22;9971;52.446;13.452;2023-09-08T06:12:42;17.40;99.90
19646;DHT22;9971;52.446;13.452;2023-09-08T06:17:46;17.60;99.90
19646;DHT22;9971;52.446;13.452;2023-09-08T06:22:48;17.80;99.90
19646;DHT22;9971;52.446;13.452;2023-09-08T06:27:50;18.20;99.90
19646;DHT22;9971;52.446;13.452;2023-09-08T06:32:53;18.30;99.90
19646;DHT22;9971;52.446;13.452;2023-09-08T06:37:57;18.40;99.90
19646;DHT22;9971;52.446;13.452;2023-09-08T06:43:00;18.60;99.90
19646;DHT22;9971;52.446;13.452;2023-09-08T06:48:02;18.80;99.90
19646;DHT22;9971;52.446;13.452;2023-09-08T06:53:04;18.90;99.90
19646;DHT22;9971;52.446;13.452;2023-09-08T06:58:14;19.10;99.90
19646;DHT22;9971;52.446;13.452;2023-09-08T07:08:57;19.50;99.90
19646;DHT22;9971;52.446;13.452;2023-09-08T07:30:25;20.40;99.90
19646;DHT22;9971;52.446;13.452;2023-09-08T07:35:40;20.60;99.90
19646;DHT22;9971;52.446;13.452;2023-09-08T07:40:49;20.90;99.90
19646;DHT22;9971;52.446;13.452;2023-09-08T07:45:54;21.10;99.90
19646;DHT22;9971;52.446;13.452;2023-09-08T07:51:05;21.10;99.90
19646;DHT22;9971;52.446;13.452;2023-09-08T07:56:17;21.30;99.90
19646;DHT22;9971;52.446;13.452;2023-09-08T08:06:53;21.70;99.90
19646;DHT22;9971;52.446;13.452;2023-09-08T08:12:00;21.90;99.90
19646;DHT22;9971;52.446;13.452;2023-09-08T08:17:08;22.20;99.90
19646;DHT22;9971;52.446;13.452;2023-09-08T08:22:11;22.40;99.90
19646;DHT22;9971;52.446;13.452;2023-09-08T08:27:16;22.70;99.90
19646;DHT22;9971;52.446;13.452;2023-09-08T08:32:18;22.80;99.90
19646;DHT22;9971;52.446;13.452;2023-09-08T08:37:23;23.10;99.90
19646;DHT22;9971;52.446;13.452;2023-09-08T08:42:30;23.50;99.90
19646;DHT22;9971;52.446;13.452;2023-09-08T08:47:29;23.70;99.90
19646;DHT22;9971;52.446;13.452;2023-09-08T08:52:33;24.00;99.90
19646;DHT22;9971;52.446;13.452;2023-09-08T09:19:09;25.30;99.90
19646;DHT22;9971;52.446;13.452;2023-09-08T09:24:15;25.60;99.90
19646;DHT22;9971;52.446;13.452;2023-09-08T09:29:17;25.90;99.90
19646;DHT22;9971;52.446;13.452;2023-09-08T09:34:20;26.10;99.90
19646;DHT22;9971;52.446;13.452;2023-09-08T09:39:22;26.40;99.90
19646;DHT22;9971;52.446;13.452;2023-09-08T09:44:24;26.60;99.90
19646;DHT22;9971;52.446;13.452;2023-09-08T09:49:26;26.90;99.90
19646;DHT22;9971;52.446;13.452;2023-09-08T09:54:29;27.00;99.90
19646;DHT22;9971;52.446;13.452;2023-09-08T09:59:33;27.10;99.90
19646;DHT22;9971;52.446;13.452;2023-09-08T10:04:35;27.60;99.90
19646;DHT22;9971;52.446;13.452;2023-09-08T10:09:37;27.70;99.90
19646;DHT22;9971;52.446;13.452;2023-09-08T10:14:40;28.00;99.90
19646;DHT22;9971;52.446;13.452;2023-09-08T10:19:42;28.00;99.90
19646;DHT22;9971;52.446;13.452;2023-09-08T10:24:44;28.30;99.90
19646;DHT22;9971;52.446;13.452;2023-09-08T10:29:46;28.50;99.90
19646;DHT22;9971;52.446;13.452;2023-09-08T10:34:48;28.50;99.90
19646;DHT22;9971;52.446;13.452;2023-09-08T10:39:50;28.90;99.90
19646;DHT22;9971;52.446;13.452;2023-09-08T10:44:56;29.10;99.90
19646;DHT22;9971;52.446;13.452;2023-09-08T10:49:58;29.30;99.90
19646;DHT22;9971;52.446;13.452;2023-09-08T10:55:00;29.40;97.30
19646;DHT22;9971;52.446;13.452;2023-09-08T11:00:03;29.70;98.60
19646;DHT22;9971;52.446;13.452;2023-09-08T11:05:15;29.70;96.20
19646;DHT22;9971;52.446;13.452;2023-09-08T11:10:17;29.90;95.60
19646;DHT22;9971;52.446;13.452;2023-09-08T11:15:19;30.10;94.40
19646;DHT22;9971;52.446;13.452;2023-09-08T11:20:26;30.40;92.60
19646;DHT22;9971;52.446;13.452;2023-09-08T11:25:28;30.50;91.90
19646;DHT22;9971;52.446;13.452;2023-09-08T11:30:31;30.60;92.10
19646;DHT22;9971;52.446;13.452;2023-09-08T11:35:34;31.00;91.50
19646;DHT22;9971;52.446;13.452;2023-09-08T11:40:37;31.20;87.90
19646;DHT22;9971;52.446;13.452;2023-09-08T11:45:39;31.20;89.30
19646;DHT22;9971;52.446;13.452;2023-09-08T11:50:42;31.40;88.30
19646;DHT22;9971;52.446;13.452;2023-09-08T11:55:43;31.60;86.10
19646;DHT22;9971;52.446;13.452;2023-09-08T12:00:45;31.50;82.70
19646;DHT22;9971;52.446;13.452;2023-09-08T12:05:50;31.60;82.90
19646;DHT22;9971;52.446;13.452;2023-09-08T12:10:49;31.80;82.60
19646;DHT22;9971;52.446;13.452;2023-09-08T12:15:52;32.00;82.70
19646;DHT22;9971;52.446;13.452;2023-09-08T12:21:03;32.30;81.80
19646;DHT22;9971;52.446;13.452;2023-09-08T12:25:57;32.20;76.00
19646;DHT22;9971;52.446;13.452;2023-09-08T12:30:59;32.10;75.10
19646;DHT22;9971;52.446;13.452;2023-09-08T12:36:09;32.40;76.60
19646;DHT22;9971;52.446;13.452;2023-09-08T12:41:02;32.90;73.40
19646;DHT22;9971;52.446;13.452;2023-09-08T12:46:05;32.90;73.20
19646;DHT22;9971;52.446;13.452;2023-09-08T12:51:08;32.80;73.80
19646;DHT22;9971;52.446;13.452;2023-09-08T12:56:10;32.90;71.70
19646;DHT22;9971;52.446;13.452;2023-09-08T13:01:13;33.00;71.40
19646;DHT22;9971;52.446;13.452;2023-09-08T13:06:15;33.30;69.00
19646;DHT22;9971;52.446;13.452;2023-09-08T13:11:18;33.10;69.10
19646;DHT22;9971;52.446;13.452;2023-09-08T13:16:20;33.30;68.00
19646;DHT22;9971;52.446;13.452;2023-09-08T13:21:22;33.30;69.00
19646;DHT22;9971;52.446;13.452;2023-09-08T13:26:25;33.50;66.80
19646;DHT22;9971;52.446;13.452;2023-09-08T13:31:27;33.30;67.10
19646;DHT22;9971;52.446;13.452;2023-09-08T13:36:30;33.50;67.40
19646;DHT22;9971;52.446;13.452;2023-09-08T13:41:53;33.40;65.70
19646;DHT22;9971;52.446;13.452;2023-09-08T13:46:55;33.50;65.70
19646;DHT22;9971;52.446;13.452;2023-09-08T13:51:57;33.60;63.30
19646;DHT22;9971;52.446;13.452;2023-09-08T13:57:01;33.90;63.40
19646;DHT22;9971;52.446;13.452;2023-09-08T14:02:01;33.90;63.80
19646;DHT22;9971;52.446;13.452;2023-09-08T14:07:04;33.80;62.00
19646;DHT22;9971;52.446;13.452;2023-09-08T14:12:07;33.80;63.30
19646;DHT22;9971;52.446;13.452;2023-09-08T14:17:10;34.00;61.60
19646;DHT22;9971;52.446;13.452;2023-09-08T14:22:12;34.00;60.60
19646;DHT22;9971;52.446;13.452;2023-09-08T14:27:14;33.70;59.90
19646;DHT22;9971;52.446;13.452;2023-09-08T14:32:17;34.00;60.60
19646;DHT22;9971;52.446;13.452;2023-09-08T14:37:20;33.90;60.90
19646;DHT22;9971;52.446;13.452;2023-09-08T14:42:22;33.90;62.40
19646;DHT22;9971;52.446;13.452;2023-09-08T14:47:25;34.10;59.70
19646;DHT22;9971;52.446;13.452;2023-09-08T14:52:27;33.80;59.10
19646;DHT22;9971;52.446;13.452;2023-09-08T14:57:29;34.00;59.10
19646;DHT22;9971;52.446;13.452;2023-09-08T15:02:32;33.70;59.90
19646;DHT22;9971;52.446;13.452;2023-09-08T15:07:34;34.00;58.60
19646;DHT22;9971;52.446;13.452;2023-09-08T15:12:37;33.80;59.00
19646;DHT22;9971;52.446;13.452;2023-09-08T15:17:39;33.80;58.20
19646;DHT22;9971;52.446;13.452;2023-09-08T15:22:42;33.70;59.10
19646;DHT22;9971;52.446;13.452;2023-09-08T15:27:44;33.90;58.60
19646;DHT22;9971;52.446;13.452;2023-09-08T15:32:47;33.50;59.20
19646;DHT22;9971;52.446;13.452;2023-09-08T15:37:49;33.10;59.80
19646;DHT22;9971;52.446;13.452;2023-09-08T15:42:52;33.20;59.50
19646;DHT22;9971;52.446;13.452;2023-09-08T15:47:54;32.90;59.90
19646;DHT22;9971;52.446;13.452;2023-09-08T15:52:57;32.80;60.20
19646;DHT22;9971;52.446;13.452;2023-09-08T15:57:59;32.70;61.00
19646;DHT22;9971;52.446;13.452;2023-09-08T16:03:01;32.40;60.50
19646;DHT22;9971;52.446;13.452;2023-09-08T16:08:05;32.30;61.00
19646;DHT22;9971;52.446;13.452;2023-09-08T16:13:07;32.00;61.80
19646;DHT22;9971;52.446;13.452;2023-09-08T16:18:10;31.80;62.10
19646;DHT22;9971;52.446;13.452;2023-09-08T16:23:12;31.40;63.20
19646;DHT22;9971;52.446;13.452;2023-09-08T16:28:14;31.30;63.30
19646;DHT22;9971;52.446;13.452;2023-09-08T16:33:18;31.20;62.80
19646;DHT22;9971;52.446;13.452;2023-09-08T16:38:20;31.10;64.10
19646;DHT22;9971;52.446;13.452;2023-09-08T16:43:22;30.80;64.70
19646;DHT22;9971;52.446;13.452;2023-09-08T16:48:25;30.60;65.60
19646;DHT22;9971;52.446;13.452;2023-09-08T16:53:27;30.20;66.90
19646;DHT22;9971;52.446;13.452;2023-09-08T16:58:30;29.80;68.60
19646;DHT22;9971;52.446;13.452;2023-09-08T17:03:32;29.30;70.60
19646;DHT22;9971;52.446;13.452;2023-09-08T17:08:35;28.90;72.40
19646;DHT22;9971;52.446;13.452;2023-09-08T17:13:37;28.50;75.40
19646;DHT22;9971;52.446;13.452;2023-09-08T17:18:40;28.10;78.00
19646;DHT22;9971;52.446;13.452;2023-09-08T17:23:42;27.70;80.80
19646;DHT22;9971;52.446;13.452;2023-09-08T17:28:45;27.50;83.10
19646;DHT22;9971;52.446;13.452;2023-09-08T17:33:47;27.50;84.10
19646;DHT22;9971;52.446;13.452;2023-09-08T17:38:49;27.70;84.00
19646;DHT22;9971;52.446;13.452;2023-09-08T17:43:52;27.80;83.40
19646;DHT22;9971;52.446;13.452;2023-09-08T17:48:54;27.80;82.80
19646;DHT22;9971;52.446;13.452;2023-09-08T17:53:58;27.90;82.60
19646;DHT22;9971;52.446;13.452;2023-09-08T17:59:00;28.00;82.50
19646;DHT22;9971;52.446;13.452;2023-09-08T18:04:03;28.00;82.60
19646;DHT22;9971;52.446;13.452;2023-09-08T18:09:06;28.00;82.70
19646;DHT22;9971;52.446;13.452;2023-09-08T18:14:08;28.00;82.90
19646;DHT22;9971;52.446;13.452;2023-09-08T18:19:10;28.10;84.00
19646;DHT22;9971;52.446;13.452;2023-09-08T18:24:13;28.10;83.50
19646;DHT22;9971;52.446;13.452;2023-09-08T18:29:15;28.10;83.80
19646;DHT22;9971;52.446;13.452;2023-09-08T18:34:18;28.00;84.80
19646;DHT22;9971;52.446;13.452;2023-09-08T18:39:20;28.00;84.30
19646;DHT22;9971;52.446;13.452;2023-09-08T18:44:22;28.00;84.60
19646;DHT22;9971;52.446;13.452;2023-09-08T18:49:24;28.00;85.00
19646;DHT22;9971;52.446;13.452;2023-09-08T18:54:27;28.00;85.30
19646;DHT22;9971;52.446;13.452;2023-09-08T18:59:30;28.00;85.60
19646;DHT22;9971;52.446;13.452;2023-09-08T19:04:32;28.00;86.00
19646;DHT22;9971;52.446;13.452;2023-09-08T19:09:35;27.90;86.30
19646;DHT22;9971;52.446;13.452;2023-09-08T19:14:37;27.90;86.50
19646;DHT22;9971;52.446;13.452;2023-09-08T19:19:39;27.90;86.90
19646;DHT22;9971;52.446;13.452;2023-09-08T19:24:43;27.90;87.30
19646;DHT22;9971;52.446;13.452;2023-09-08T19:29:47;27.90;87.80
19646;DHT22;9971;52.446;13.452;2023-09-08T19:34:49;27.80;88.00
19646;DHT22;9971;52.446;13.452;2023-09-08T19:39:51;27.80;88.40
19646;DHT22;9971;52.446;13.452;2023-09-08T19:44:53;27.80;88.80
19646;DHT22;9971;52.446;13.452;2023-09-08T19:49:56;27.80;89.10
19646;DHT22;9971;52.446;13.452;2023-09-08T19:55:00;27.80;89.40
19646;DHT22;9971;52.446;13.452;2023-09-08T20:00:02;27.80;89.80
19646;DHT22;9971;52.446;13.452;2023-09-08T20:05:05;27.70;89.90
19646;DHT22;9971;52.446;13.452;2023-09-08T20:10:08;27.70;90.00
19646;DHT22;9971;52.446;13.452;2023-09-08T20:15:10;27.70;90.10
19646;DHT22;9971;52.446;13.452;2023-09-08T20:20:13;27.70;90.30
19646;DHT22;9971;52.446;13.452;2023-09-08T20:25:16;27.70;90.40
19646;DHT22;9971;52.446;13.452;2023-09-08T20:30:19;27.60;90.80
19646;DHT22;9971;52.446;13.452;2023-09-08T20:35:22;27.60;90.60
19646;DHT22;9971;52.446;13.452;2023-09-08T20:40:24;27.60;90.70
19646;DHT22;9971;52.446;13.452;2023-09-08T20:45:26;27.60;91.10
19646;DHT22;9971;52.446;13.452;2023-09-08T20:50:28;27.60;90.90
19646;DHT22;9971;52.446;13.452;2023-09-08T20:55:32;27.60;90.90
19646;DHT22;9971;52.446;13.452;2023-09-08T21:00:34;27.60;91.10
19646;DHT22;9971;52.446;13.452;2023-09-08T21:05:37;27.50;91.10
19646;DHT22;9971;52.446;13.452;2023-09-08T21:10:41;27.50;91.20
19646;DHT22;9971;52.446;13.452;2023-09-08T21:15:46;27.50;91.30
19646;DHT22;9971;52.446;13.452;2023-09-08T21:20:49;27.50;91.30
19646;DHT22;9971;52.446;13.452;2023-09-08T21:25:54;27.50;91.40
19646;DHT22;9971;52.446;13.452;2023-09-08T21:31:04;27.50;91.40
19646;DHT22;9971;52.446;13.452;2023-09-08T21:36:06;27.50;91.50
19646;DHT22;9971;52.446;13.452;2023-09-08T21:41:10;27.40;91.50
19646;DHT22;9971;52.446;13.452;2023-09-08T21:46:13;27.40;91.50
19646;DHT22;9971;52.446;13.452;2023-09-08T21:51:17;27.50;91.60
19646;DHT22;9971;52.446;13.452;2023-09-08T21:56:21;27.40;91.60
19646;DHT22;9971;52.446;13.452;2023-09-08T22:01:25;27.40;91.70
19646;DHT22;9971;52.446;13.452;2023-09-08T22:06:27;27.40;91.70
19646;DHT22;9971;52.446;13.452;2023-09-08T22:11:32;27.30;91.80
19646;DHT22;9971;52.446;13.452;2023-09-08T22:16:36;27.30;91.80
19646;DHT22;9971;52.446;13.452;2023-09-08T22:21:38;27.30;92.20
19646;DHT22;9971;52.446;13.452;2023-09-08T22:26:41;27.30;91.90
19646;DHT22;9971;52.446;13.452;2023-09-08T22:31:43;27.20;91.90
19646;DHT22;9971;52.446;13.452;2023-09-08T22:36:46;27.20;92.00
19646;DHT22;9971;52.446;13.452;2023-09-08T22:41:48;27.20;92.00
19646;DHT22;9971;52.446;13.452;2023-09-08T22:46:50;27.20;92.00
19646;DHT22;9971;52.446;13.452;2023-09-08T22:51:55;27.20;92.10
19646;DHT22;9971;52.446;13.452;2023-09-08T22:56:57;27.10;92.10
19646;DHT22;9971;52.446;13.452;2023-09-08T23:18:06;27.10;92.20
19646;DHT22;9971;52.446;13.452;2023-09-08T23:23:11;27.10;92.10
19646;DHT22;9971;52.446;13.452;2023-09-08T23:28:15;27.10;92.20
19646;DHT22;9971;52.446;13.452;2023-09-08T23:33:17;27.10;92.20
19646;DHT22;9971;52.446;13.452;2023-09-08T23:38:21;27.00;92.30
19646;DHT22;9971;52.446;13.452;2023-09-08T23:43:24;27.00;92.30
19646;DHT22;9971;52.446;13.452;2023-09-08T23:48:26;27.00;92.30
19646;DHT22;9971;52.446;13.452;2023-09-08T23:53:29;27.00;92.40
19646;DHT22;9971;52.446;13.452;2023-09-08T23:58:32;27.00;92.40
